createdAt,value
2022-08-20T00:00:41.274Z,15.50
2022-08-20T00:03:31.445Z,15.50
2022-08-20T00:06:02.435Z,15.60
2022-08-20T00:08:30.318Z,15.50
2022-08-20T00:10:58.975Z,15.50
2022-08-20T00:13:33.214Z,15.60
2022-08-20T00:16:00.556Z,15.60
2022-08-20T00:18:27.539Z,15.60
2022-08-20T00:20:55.967Z,15.60
2022-08-20T00:23:23.574Z,15.60
2022-08-20T00:25:51.658Z,15.60
2022-08-20T00:28:18.596Z,15.60
2022-08-20T00:30:46.575Z,15.60
2022-08-20T00:33:19.736Z,15.70
2022-08-20T00:35:50.028Z,15.80
2022-08-20T00:38:16.776Z,15.80
2022-08-20T00:40:53.415Z,15.80
2022-08-20T00:43:34.683Z,15.80
2022-08-20T00:46:05.936Z,15.80
2022-08-20T00:48:35.632Z,16.00
2022-08-20T00:51:09.180Z,16.00
2022-08-20T00:53:37.461Z,15.90
2022-08-20T00:56:06.059Z,15.90
2022-08-20T00:58:33.724Z,15.90
2022-08-20T01:01:00.752Z,15.90
2022-08-20T01:03:27.569Z,15.90
2022-08-20T01:05:54.311Z,15.90
2022-08-20T01:08:24.603Z,15.90
2022-08-20T01:10:53.799Z,15.90
2022-08-20T01:13:24.232Z,15.90
2022-08-20T01:15:54.671Z,16.40
2022-08-20T01:18:25.682Z,15.90
2022-08-20T01:20:58.207Z,15.90
2022-08-20T01:23:41.962Z,15.90
2022-08-20T01:26:13.775Z,15.90
2022-08-20T01:28:58.601Z,15.90
2022-08-20T01:31:30.410Z,16.00
2022-08-20T01:33:58.999Z,15.90
2022-08-20T01:36:32.577Z,15.90
2022-08-20T01:39:00.932Z,15.90
2022-08-20T01:41:36.439Z,15.90
2022-08-20T01:44:03.740Z,15.90
2022-08-20T01:46:36.835Z,15.90
2022-08-20T01:49:23.187Z,15.90
2022-08-20T01:51:52.431Z,15.80
2022-08-20T01:54:20.257Z,15.90
2022-08-20T01:57:10.335Z,15.90
2022-08-20T01:59:37.693Z,15.90
2022-08-20T02:02:07.045Z,15.90
2022-08-20T02:04:34.396Z,16.00
2022-08-20T02:07:04.235Z,15.90
2022-08-20T02:09:39.167Z,15.90
2022-08-20T02:12:09.032Z,16.00
2022-08-20T02:14:40.300Z,15.90
2022-08-20T02:17:07.091Z,15.90
2022-08-20T02:19:41.583Z,16.00
2022-08-20T02:22:24.015Z,16.00
2022-08-20T02:24:51.385Z,15.90
2022-08-20T02:27:19.028Z,15.90
2022-08-20T02:29:46.764Z,15.90
2022-08-20T02:32:32.473Z,16.00
2022-08-20T02:35:02.225Z,15.90
2022-08-20T02:37:29.499Z,15.90
2022-08-20T02:39:56.320Z,16.00
2022-08-20T02:42:23.102Z,16.00
2022-08-20T02:44:49.822Z,16.00
2022-08-20T02:47:17.227Z,16.00
2022-08-20T02:49:44.103Z,15.90
2022-08-20T02:52:11.061Z,16.00
2022-08-20T02:54:37.838Z,16.00
2022-08-20T02:57:04.768Z,15.90
2022-08-20T02:59:31.767Z,15.90
2022-08-20T03:02:00.237Z,15.90
2022-08-20T03:04:28.986Z,15.90
2022-08-20T03:06:55.994Z,15.90
2022-08-20T03:09:23.015Z,16.00
2022-08-20T03:11:49.783Z,16.00
2022-08-20T03:14:16.531Z,15.90
2022-08-20T03:16:43.263Z,15.90
2022-08-20T03:19:10.123Z,16.00
2022-08-20T03:21:37.180Z,15.90
2022-08-20T03:24:04.223Z,16.00
2022-08-20T03:26:31.024Z,16.00
2022-08-20T03:28:57.848Z,16.00
2022-08-20T03:31:24.659Z,16.00
2022-08-20T03:33:53.613Z,16.00
2022-08-20T03:36:28.531Z,16.00
2022-08-20T03:39:01.239Z,16.00
2022-08-20T03:41:29.005Z,16.00
2022-08-20T03:43:56.237Z,16.00
2022-08-20T03:46:23.914Z,16.00
2022-08-20T03:48:59.833Z,16.00
2022-08-20T03:51:31.949Z,16.00
2022-08-20T03:54:18.781Z,16.00
2022-08-20T03:56:45.543Z,16.00
2022-08-20T03:59:12.302Z,16.00
2022-08-20T04:01:46.334Z,16.00
2022-08-20T04:04:14.410Z,16.10
2022-08-20T04:06:42.646Z,16.00
2022-08-20T04:09:12.155Z,16.00
2022-08-20T04:11:39.949Z,16.00
2022-08-20T04:14:06.849Z,16.00
2022-08-20T04:16:34.123Z,16.00
2022-08-20T04:19:03.449Z,16.00
2022-08-20T04:21:33.149Z,16.00
2022-08-20T04:24:04.332Z,16.10
2022-08-20T04:26:31.650Z,16.10
2022-08-20T04:28:58.747Z,16.00
2022-08-20T04:31:25.713Z,16.00
2022-08-20T04:33:52.767Z,16.10
2022-08-20T04:36:19.923Z,16.10
2022-08-20T04:38:48.058Z,16.10
2022-08-20T04:41:22.444Z,16.00
2022-08-20T04:43:54.658Z,16.10
2022-08-20T04:46:23.839Z,16.10
2022-08-20T04:48:50.891Z,16.10
2022-08-20T04:51:18.763Z,16.10
2022-08-20T04:53:52.308Z,16.10
2022-08-20T04:56:24.030Z,16.10
2022-08-20T04:58:52.687Z,16.10
2022-08-20T05:01:20.084Z,16.10
2022-08-20T05:03:49.899Z,16.10
2022-08-20T05:06:18.742Z,16.10
2022-08-20T05:08:45.612Z,16.10
2022-08-20T05:11:33.088Z,16.10
2022-08-20T05:14:01.288Z,16.00
2022-08-20T05:16:28.042Z,16.10
2022-08-20T05:18:54.781Z,16.10
2022-08-20T05:21:21.912Z,16.10
2022-08-20T05:23:49.425Z,16.20
2022-08-20T05:26:16.910Z,16.10
2022-08-20T05:28:54.154Z,16.10
2022-08-20T05:31:32.230Z,16.00
2022-08-20T05:34:12.040Z,16.00
2022-08-20T05:36:41.635Z,16.10
2022-08-20T05:39:09.300Z,16.10
2022-08-20T05:41:36.454Z,16.10
2022-08-20T05:44:03.470Z,16.10
2022-08-20T05:46:32.148Z,16.10
2022-08-20T05:49:01.657Z,16.10
2022-08-20T05:51:29.373Z,16.10
2022-08-20T05:53:58.210Z,16.10
2022-08-20T05:56:27.004Z,16.10
2022-08-20T05:58:54.162Z,16.10
2022-08-20T06:01:21.502Z,16.10
2022-08-20T06:04:07.057Z,16.10
2022-08-20T06:06:39.063Z,16.10
2022-08-20T06:09:31.982Z,16.20
2022-08-20T06:12:04.543Z,16.20
2022-08-20T06:14:32.559Z,16.20
2022-08-20T06:17:07.703Z,16.30
2022-08-20T06:19:36.339Z,16.30
2022-08-20T06:22:17.787Z,16.40
2022-08-20T06:24:51.212Z,16.40
2022-08-20T06:27:18.076Z,16.40
2022-08-20T06:29:44.866Z,16.30
2022-08-20T06:32:11.680Z,16.40
2022-08-20T06:34:38.387Z,16.40
2022-08-20T06:37:21.452Z,16.40
2022-08-20T06:39:48.275Z,16.40
2022-08-20T06:42:15.199Z,16.40
2022-08-20T06:44:50.208Z,16.50
2022-08-20T06:47:19.434Z,16.50
2022-08-20T06:49:47.529Z,16.60
2022-08-20T06:52:17.043Z,16.60
2022-08-20T06:54:44.901Z,16.60
2022-08-20T06:57:11.666Z,16.70
2022-08-20T06:59:38.572Z,16.70
2022-08-20T07:02:05.729Z,16.70
2022-08-20T07:04:32.449Z,16.90
2022-08-20T07:06:59.414Z,16.90
2022-08-20T07:09:27.205Z,17.00
2022-08-20T07:11:54.243Z,17.00
2022-08-20T07:14:22.195Z,17.00
2022-08-20T07:16:49.444Z,17.10
2022-08-20T07:19:16.546Z,17.10
2022-08-20T07:21:43.682Z,17.20
2022-08-20T07:24:10.482Z,17.20
2022-08-20T07:26:37.260Z,17.20
2022-08-20T07:29:04.195Z,17.20
2022-08-20T07:31:49.494Z,17.20
2022-08-20T07:34:16.813Z,17.30
2022-08-20T07:36:48.356Z,17.40
2022-08-20T07:39:15.229Z,17.50
2022-08-20T07:41:43.587Z,17.60
2022-08-20T07:44:21.574Z,17.50
2022-08-20T07:46:59.178Z,17.40
2022-08-20T07:49:25.939Z,17.40
2022-08-20T07:51:52.678Z,17.50
2022-08-20T07:54:19.385Z,17.60
2022-08-20T07:56:46.203Z,17.70
2022-08-20T07:59:16.378Z,17.80
2022-08-20T08:01:43.131Z,17.80
2022-08-20T08:04:09.843Z,18.00
2022-08-20T08:06:36.607Z,18.10
2022-08-20T08:09:08.292Z,18.20
2022-08-20T08:11:38.403Z,18.40
2022-08-20T08:14:08.086Z,18.60
2022-08-20T08:16:35.905Z,18.80
2022-08-20T08:19:06.537Z,18.90
2022-08-20T08:21:33.367Z,19.00
2022-08-20T08:24:00.117Z,18.90
2022-08-20T08:26:28.852Z,18.90
2022-08-20T08:28:56.713Z,19.00
2022-08-20T08:31:25.541Z,19.00
2022-08-20T08:33:52.342Z,19.00
2022-08-20T08:36:19.092Z,19.00
2022-08-20T08:38:45.999Z,19.00
2022-08-20T08:41:29.487Z,19.00
2022-08-20T08:44:12.583Z,18.90
2022-08-20T08:46:43.203Z,19.00
2022-08-20T08:49:13.984Z,19.00
2022-08-20T08:52:08.646Z,18.90
2022-08-20T08:54:35.919Z,19.00
2022-08-20T08:57:02.887Z,19.00
2022-08-20T08:59:48.494Z,19.00
2022-08-20T09:02:23.555Z,19.10
2022-08-20T09:04:51.604Z,19.10
2022-08-20T09:07:18.491Z,19.20
2022-08-20T09:09:46.864Z,19.30
2022-08-20T09:12:19.013Z,19.40
2022-08-20T09:14:50.826Z,19.50
2022-08-20T09:17:20.198Z,19.60
2022-08-20T09:19:47.372Z,19.70
2022-08-20T09:22:18.995Z,19.90
2022-08-20T09:24:46.796Z,19.70
2022-08-20T09:27:13.555Z,19.60
2022-08-20T09:29:40.615Z,19.50
2022-08-20T09:32:21.005Z,19.40
2022-08-20T09:34:52.531Z,19.30
2022-08-20T09:37:19.532Z,19.50
2022-08-20T09:39:47.195Z,19.50
2022-08-20T09:42:19.939Z,19.50
2022-08-20T09:44:46.987Z,19.50
2022-08-20T09:47:14.064Z,19.50
2022-08-20T09:49:41.064Z,19.50
2022-08-20T09:52:10.325Z,19.50
2022-08-20T09:54:39.671Z,19.50
2022-08-20T09:57:14.448Z,19.60
2022-08-20T09:59:41.343Z,19.80
2022-08-20T10:02:08.157Z,19.80
2022-08-20T10:04:34.914Z,19.80
2022-08-20T10:07:01.655Z,19.80
2022-08-20T10:09:28.409Z,19.90
2022-08-20T10:11:55.116Z,20.10
2022-08-20T10:14:21.857Z,20.40
2022-08-20T10:16:55.772Z,20.70
2022-08-20T10:19:27.189Z,21.10
2022-08-20T10:21:54.878Z,21.00
2022-08-20T10:24:22.568Z,21.00
2022-08-20T10:26:50.347Z,21.10
2022-08-20T10:29:17.575Z,21.00
2022-08-20T10:31:44.318Z,20.90
2022-08-20T10:34:11.026Z,20.90
2022-08-20T10:36:37.815Z,21.10
2022-08-20T10:39:04.947Z,21.20
2022-08-20T10:41:31.764Z,21.10
2022-08-20T10:43:58.483Z,20.70
2022-08-20T10:46:25.486Z,20.60
2022-08-20T10:48:52.535Z,20.60
2022-08-20T10:51:19.273Z,20.60
2022-08-20T10:53:46.014Z,20.50
2022-08-20T10:56:15.611Z,20.30
2022-08-20T10:58:42.636Z,20.20
2022-08-20T11:01:11.380Z,20.30
2022-08-20T11:03:38.193Z,20.30
2022-08-20T11:06:05.161Z,20.20
2022-08-20T11:08:33.495Z,20.20
2022-08-20T11:11:01.784Z,20.30
2022-08-20T11:13:28.503Z,20.60
2022-08-20T11:15:55.308Z,20.70
2022-08-20T11:18:22.044Z,20.50
2022-08-20T11:20:48.867Z,20.40
2022-08-20T11:23:15.687Z,20.30
2022-08-20T11:25:42.439Z,20.30
2022-08-20T11:28:09.314Z,20.50
2022-08-20T11:30:37.035Z,20.50
2022-08-20T11:33:04.440Z,20.60
2022-08-20T11:35:49.978Z,20.70
2022-08-20T11:38:17.900Z,20.90
2022-08-20T11:40:46.625Z,20.80
2022-08-20T11:43:16.892Z,20.90
2022-08-20T11:45:47.557Z,21.10
2022-08-20T11:48:14.525Z,21.20
2022-08-20T11:50:41.392Z,21.40
2022-08-20T11:53:08.310Z,21.60
2022-08-20T11:55:36.461Z,21.70
2022-08-20T11:58:03.719Z,21.80
2022-08-20T12:00:33.966Z,22.00
2022-08-20T12:03:02.282Z,22.20
2022-08-20T12:05:30.104Z,22.20
2022-08-20T12:07:57.746Z,21.60
2022-08-20T12:10:26.630Z,20.90
2022-08-20T12:12:53.926Z,20.40
2022-08-20T12:15:20.836Z,20.10
2022-08-20T12:17:47.945Z,20.00
2022-08-20T12:20:16.334Z,19.90
2022-08-20T12:22:43.963Z,19.90
2022-08-20T12:25:11.093Z,19.80
2022-08-20T12:27:38.278Z,19.80
2022-08-20T12:30:12.310Z,19.90
2022-08-20T12:32:39.355Z,19.90
2022-08-20T12:35:08.447Z,20.20
2022-08-20T12:37:36.200Z,20.20
2022-08-20T12:40:07.610Z,20.00
2022-08-20T12:42:34.500Z,20.00
2022-08-20T12:45:01.638Z,20.00
2022-08-20T12:47:34.111Z,20.00
2022-08-20T12:50:31.646Z,19.90
2022-08-20T12:52:59.359Z,19.90
2022-08-20T12:55:26.418Z,19.80
2022-08-20T12:57:56.971Z,19.90
2022-08-20T13:00:28.571Z,20.10
2022-08-20T13:02:59.069Z,20.20
2022-08-20T13:05:27.183Z,20.40
2022-08-20T13:07:55.327Z,20.50
2022-08-20T13:10:28.094Z,20.50
2022-08-20T13:12:55.530Z,20.50
2022-08-20T13:15:23.767Z,20.60
2022-08-20T13:17:55.058Z,20.80
2022-08-20T13:20:25.169Z,20.60
2022-08-20T13:22:52.979Z,20.70
2022-08-20T13:25:20.969Z,20.60
2022-08-20T13:27:47.992Z,20.70
2022-08-20T13:30:19.083Z,20.70
2022-08-20T13:32:46.215Z,20.80
2022-08-20T13:35:14.159Z,21.00
2022-08-20T13:37:41.742Z,21.00
2022-08-20T13:40:09.630Z,21.00
2022-08-20T13:42:36.528Z,21.00
2022-08-20T13:45:04.895Z,20.80
2022-08-20T13:47:35.051Z,20.70
2022-08-20T13:50:12.940Z,20.60
2022-08-20T13:52:42.610Z,20.60
2022-08-20T13:55:11.871Z,20.60
2022-08-20T13:57:38.826Z,20.60
2022-08-20T14:00:13.008Z,20.80
2022-08-20T14:02:40.767Z,20.60
2022-08-20T14:05:08.689Z,20.60
2022-08-20T14:07:35.591Z,20.80
2022-08-20T14:10:07.119Z,21.00
2022-08-20T14:12:34.484Z,21.00
2022-08-20T14:15:01.386Z,21.00
2022-08-20T14:17:30.931Z,20.60
2022-08-20T14:20:01.735Z,20.40
2022-08-20T14:22:29.390Z,20.00
2022-08-20T14:24:56.689Z,19.80
2022-08-20T14:27:29.032Z,19.40
2022-08-20T14:29:58.037Z,19.00
2022-08-20T14:32:25.023Z,19.00
2022-08-20T14:34:51.774Z,18.90
2022-08-20T14:37:33.323Z,18.60
2022-08-20T14:40:02.441Z,18.40
2022-08-20T14:42:30.449Z,18.30
2022-08-20T14:44:59.000Z,18.40
2022-08-20T14:47:32.006Z,18.30
2022-08-20T14:50:02.862Z,18.30
2022-08-20T14:52:33.766Z,18.30
2022-08-20T14:55:00.513Z,18.40
2022-08-20T14:57:27.676Z,18.50
2022-08-20T14:59:54.534Z,18.60
2022-08-20T15:02:22.170Z,18.30
2022-08-20T15:04:53.986Z,18.40
2022-08-20T15:07:31.458Z,18.50
2022-08-20T15:10:01.848Z,18.50
2022-08-20T15:12:29.011Z,18.50
2022-08-20T15:14:55.777Z,18.50
2022-08-20T15:17:29.535Z,18.40
2022-08-20T15:19:57.412Z,18.40
2022-08-20T15:22:24.703Z,18.50
2022-08-20T15:24:57.594Z,18.50
2022-08-20T15:27:25.625Z,18.40
2022-08-20T15:29:53.019Z,18.40
2022-08-20T15:32:20.774Z,18.30
2022-08-20T15:34:48.040Z,18.30
2022-08-20T15:37:23.161Z,18.40
2022-08-20T15:39:51.084Z,18.30
2022-08-20T15:42:19.560Z,18.20
2022-08-20T15:44:46.709Z,18.30
2022-08-20T15:47:33.879Z,18.40
2022-08-20T15:50:08.039Z,18.40
2022-08-20T15:52:42.769Z,18.70
2022-08-20T15:55:14.823Z,18.70
2022-08-20T15:58:01.936Z,18.70
2022-08-20T16:00:46.369Z,18.60
2022-08-20T16:03:34.191Z,18.70
2022-08-20T16:06:13.698Z,18.40
2022-08-20T16:09:17.122Z,18.50
2022-08-20T16:12:00.285Z,18.50
2022-08-20T16:14:30.923Z,18.40
2022-08-20T16:17:05.542Z,18.30
2022-08-20T16:19:41.490Z,18.30
2022-08-20T16:22:13.914Z,18.40
2022-08-20T16:24:40.724Z,18.50
2022-08-20T16:27:32.740Z,18.40
2022-08-20T16:30:21.750Z,18.40
2022-08-20T16:33:02.432Z,18.40
2022-08-20T16:35:36.986Z,18.50
2022-08-20T16:38:41.575Z,18.50
2022-08-20T16:41:21.787Z,18.60
2022-08-20T16:44:07.710Z,18.60
2022-08-20T16:46:40.320Z,18.70
2022-08-20T16:49:13.465Z,18.70
2022-08-20T16:51:46.112Z,18.70
2022-08-20T16:54:16.863Z,18.60
2022-08-20T16:56:49.854Z,18.70
2022-08-20T16:59:27.243Z,18.70
2022-08-20T17:02:01.842Z,18.60
2022-08-20T17:04:42.328Z,18.60
2022-08-20T17:07:13.062Z,18.60
2022-08-20T17:09:43.446Z,18.70
2022-08-20T17:12:27.286Z,18.70
2022-08-20T17:14:56.411Z,18.80
2022-08-20T17:17:37.204Z,18.70
2022-08-20T17:20:20.225Z,18.70
2022-08-20T17:23:10.886Z,18.80
2022-08-20T17:25:38.502Z,18.80
2022-08-20T17:28:23.863Z,18.80
2022-08-20T17:30:51.578Z,18.70
2022-08-20T17:33:35.914Z,18.60
2022-08-20T17:36:17.454Z,18.60
2022-08-20T17:39:11.381Z,18.60
2022-08-20T17:41:38.335Z,18.60
2022-08-20T17:44:20.553Z,18.50
2022-08-20T17:46:48.827Z,18.40
2022-08-20T17:49:19.768Z,18.30
2022-08-20T17:51:50.436Z,18.20
2022-08-20T17:54:40.584Z,18.20
2022-08-20T17:57:12.656Z,18.20
2022-08-20T18:00:04.406Z,18.20
2022-08-20T18:02:31.388Z,18.00
2022-08-20T18:04:58.167Z,17.90
2022-08-20T18:07:31.128Z,17.80
2022-08-20T18:10:09.030Z,17.70
2022-08-20T18:12:47.514Z,17.60
2022-08-20T18:15:24.752Z,17.40
2022-08-20T18:18:06.773Z,17.40
2022-08-20T18:20:54.826Z,17.30
2022-08-20T18:23:27.871Z,17.20
2022-08-20T18:26:07.612Z,17.10
2022-08-20T18:28:39.296Z,17.10
2022-08-20T18:31:08.959Z,17.10
2022-08-20T18:33:42.209Z,17.20
2022-08-20T18:36:17.831Z,17.00
2022-08-20T18:38:56.843Z,17.10
2022-08-20T18:41:40.078Z,17.00
2022-08-20T18:44:29.435Z,17.00
2022-08-20T18:47:01.969Z,17.00
2022-08-20T18:49:40.651Z,16.90
2022-08-20T18:52:18.177Z,16.90
2022-08-20T18:54:58.033Z,16.80
2022-08-20T18:57:40.850Z,16.80
2022-08-20T19:00:16.770Z,16.80
2022-08-20T19:03:06.544Z,16.80
2022-08-20T19:05:45.687Z,16.70
2022-08-20T19:08:17.917Z,16.60
2022-08-20T19:11:14.644Z,16.70
2022-08-20T19:13:54.751Z,16.60
2022-08-20T19:16:33.987Z,16.60
2022-08-20T19:19:01.047Z,16.60
2022-08-20T19:21:32.517Z,16.60
2022-08-20T19:24:03.417Z,16.60
2022-08-20T19:26:32.953Z,16.60
2022-08-20T19:29:07.075Z,16.60
2022-08-20T19:31:35.448Z,16.60
2022-08-20T19:34:19.563Z,16.50
2022-08-20T19:37:35.202Z,16.50
2022-08-20T19:40:18.398Z,16.60
2022-08-20T19:42:45.994Z,16.60
2022-08-20T19:45:25.992Z,16.60
2022-08-20T19:48:12.559Z,16.60
2022-08-20T19:50:54.785Z,16.60
2022-08-20T19:53:34.244Z,16.60
2022-08-20T19:56:02.882Z,16.60
2022-08-20T19:58:31.461Z,16.60
2022-08-20T20:01:00.814Z,16.60
2022-08-20T20:03:32.070Z,16.60
2022-08-20T20:06:18.344Z,16.70
2022-08-20T20:08:50.407Z,16.70
2022-08-20T20:11:20.338Z,16.70
2022-08-20T20:13:47.453Z,16.60
2022-08-20T20:16:19.192Z,16.60
2022-08-20T20:18:54.823Z,16.60
2022-08-20T20:21:41.887Z,16.60
2022-08-20T20:24:10.288Z,16.60
2022-08-20T20:26:40.710Z,16.70
2022-08-20T20:29:11.501Z,16.70
2022-08-20T20:31:47.476Z,16.70
2022-08-20T20:34:16.962Z,16.70
2022-08-20T20:36:46.718Z,16.60
2022-08-20T20:39:33.219Z,16.60
2022-08-20T20:42:02.517Z,16.60
2022-08-20T20:44:37.498Z,16.60
2022-08-20T20:47:08.124Z,16.60
2022-08-20T20:49:57.939Z,16.60
2022-08-20T20:52:32.362Z,16.60
2022-08-20T20:55:13.188Z,16.50
2022-08-20T20:57:39.943Z,16.50
2022-08-20T21:00:13.697Z,16.40
2022-08-20T21:02:41.030Z,16.40
2022-08-20T21:05:08.390Z,16.40
2022-08-20T21:07:43.828Z,16.40
2022-08-20T21:10:10.790Z,16.40
2022-08-20T21:12:39.241Z,16.40
2022-08-20T21:15:06.411Z,16.30
2022-08-20T21:17:33.241Z,16.30
2022-08-20T21:20:00.956Z,16.20
2022-08-20T21:22:28.123Z,16.20
2022-08-20T21:24:54.839Z,16.20
2022-08-20T21:27:24.672Z,16.20
2022-08-20T21:29:52.532Z,16.20
2022-08-20T21:32:19.783Z,16.20
2022-08-20T21:34:47.398Z,16.10
2022-08-20T21:37:14.634Z,16.10
2022-08-20T21:39:41.824Z,16.10
2022-08-20T21:42:28.152Z,16.10
2022-08-20T21:44:56.856Z,16.10
2022-08-20T21:47:23.650Z,16.10
2022-08-20T21:49:50.375Z,16.10
2022-08-20T21:52:17.158Z,16.10
2022-08-20T21:54:43.902Z,16.10
2022-08-20T21:57:23.359Z,16.10
2022-08-20T21:59:50.545Z,16.00
2022-08-20T22:02:19.306Z,16.00
2022-08-20T22:04:46.050Z,16.00
2022-08-20T22:07:13.803Z,16.00
2022-08-20T22:09:40.613Z,15.90
2022-08-20T22:12:22.884Z,16.00
2022-08-20T22:14:50.254Z,16.00
2022-08-20T22:17:17.008Z,15.90
2022-08-20T22:19:43.886Z,15.90
2022-08-20T22:22:11.972Z,15.90
2022-08-20T22:24:39.527Z,15.90
2022-08-20T22:27:07.022Z,15.90
2022-08-20T22:29:34.222Z,15.80
2022-08-20T22:32:01.483Z,15.80
2022-08-20T22:34:31.951Z,15.80
2022-08-20T22:36:59.618Z,15.80
2022-08-20T22:39:27.274Z,15.80
2022-08-20T22:41:53.989Z,15.80
2022-08-20T22:44:20.974Z,15.80
2022-08-20T22:46:52.626Z,15.70
2022-08-20T22:49:26.757Z,15.70
2022-08-20T22:51:53.847Z,15.80
2022-08-20T22:54:24.544Z,15.80
2022-08-20T22:56:52.423Z,15.70
2022-08-20T22:59:21.251Z,15.70
2022-08-20T23:01:50.607Z,15.70
2022-08-20T23:04:30.052Z,15.70
2022-08-20T23:06:57.894Z,15.70
2022-08-20T23:09:24.974Z,15.70
2022-08-20T23:11:52.123Z,15.70
2022-08-20T23:14:19.384Z,15.70
2022-08-20T23:16:51.839Z,15.70
2022-08-20T23:19:23.809Z,15.60
2022-08-20T23:21:51.846Z,15.60
2022-08-20T23:24:19.744Z,15.60
2022-08-20T23:26:52.419Z,15.60
2022-08-20T23:29:22.532Z,15.50
2022-08-20T23:31:55.036Z,15.50
2022-08-20T23:34:22.061Z,15.50
2022-08-20T23:36:49.180Z,15.50
2022-08-20T23:39:16.119Z,15.40
2022-08-20T23:41:47.765Z,15.40
2022-08-20T23:44:26.584Z,15.40
2022-08-20T23:47:00.407Z,15.40
2022-08-20T23:49:28.131Z,15.40
2022-08-20T23:51:55.305Z,15.30
2022-08-20T23:54:22.107Z,15.30
2022-08-20T23:56:49.508Z,15.30
2022-08-20T23:59:16.300Z,15.30
